PWSweather.com
Personal Weather Stations
Station Observations
WISCHPK61
Green Bay Schmitt Park, Green Bay, WI 54311

Green Bay Schmitt ParkGreen Bay, WI 54311

Lat: 44.514277, Lon: -87.935067

Elevation: 735

Station Type: Acu Rite Pro Weather Center model 02032C

http://greenbayweathercam.com

High Low Average
Temperature 62.9°F17.2°C 37.6°F3.1°C 46.5°F8.1°C
Dew Point 61.2°F16.2°C 31.1°F-0.5°C 45.0°F7.2°C
Winds Calm Calm Calm Calm Calm SCalm S
Wind Gusts -- -- --
Humidity 99% 59% 95%
Pressure 29.33 in993.2 mb 29.18 in988.1 mb -
Precipitation 0.08 in2.0 mm - -
Hour Temp Dew Point Humidity Winds Wind Gusts Pressure Precip Precip Rate Daily Precip Total
12:00 AM 43.2°F6.2°C 43.0°F6.1°C 99% Calm Calm -- 29.23 in989.8 mb - 0.00 in0.0 mm 0.00 in0.0 mm
01:00 AM 43.9°F6.6°C 43.6°F6.4°C 99% Calm Calm -- 29.23 in989.8 mb - 0.00 in0.0 mm 0.00 in0.0 mm
02:00 AM 39.8°F4.3°C 31.1°F-0.5°C 71% Calm Calm -- 29.23 in989.8 mb - 0.01 in0.3 mm 0.01 in0.3 mm
03:00 AM 38.7°F3.7°C 33.7°F0.9°C 82% Calm Calm -- 29.20 in988.8 mb - 0.03 in0.8 mm 0.04 in1.0 mm
04:00 AM 38.0°F3.3°C 35.6°F2.0°C 91% Calm Calm -- 29.20 in988.8 mb - 0.04 in1.0 mm 0.08 in2.0 mm
05:00 AM 37.9°F3.3°C 37.6°F3.1°C 99% Calm Calm -- 29.18 in988.1 mb - 0.00 in0.0 mm 0.08 in2.0 mm
06:00 AM 39.0°F3.9°C 38.7°F3.7°C 99% Calm Calm -- 29.18 in988.1 mb - 0.00 in0.0 mm 0.08 in2.0 mm
07:00 AM 38.8°F3.8°C 38.5°F3.6°C 99% Calm Calm -- 29.18 in988.1 mb - 0.00 in0.0 mm 0.08 in2.0 mm
08:00 AM 39.7°F4.3°C 39.4°F4.1°C 99% Calm Calm -- 29.20 in988.8 mb - 0.00 in0.0 mm 0.08 in2.0 mm
09:00 AM 40.8°F4.9°C 40.5°F4.7°C 99% Calm Calm -- 29.21 in989.2 mb - 0.00 in0.0 mm 0.08 in2.0 mm
10:00 AM 45.5°F7.5°C 45.2°F7.3°C 99% Calm Calm -- 29.20 in988.8 mb - 0.00 in0.0 mm 0.08 in2.0 mm
11:00 AM 50.9°F10.5°C 50.6°F10.3°C 99% Calm Calm -- 29.23 in989.8 mb - 0.00 in0.0 mm 0.08 in2.0 mm
12:00 PM 53.3°F11.8°C 53.0°F11.7°C 99% Calm Calm -- 29.23 in989.8 mb - 0.00 in0.0 mm 0.08 in2.0 mm
01:00 PM 59.1°F15.1°C 58.9°F14.9°C 99% Calm Calm -- 29.24 in990.2 mb - 0.00 in0.0 mm 0.08 in2.0 mm
02:00 PM 61.5°F16.4°C 61.2°F16.2°C 99% Calm Calm -- 29.23 in989.8 mb - 0.00 in0.0 mm 0.08 in2.0 mm
03:00 PM 62.9°F17.2°C 48.4°F9.1°C 59% Calm Calm -- 29.24 in990.2 mb - 0.00 in0.0 mm 0.08 in2.0 mm
04:00 PM 56.8°F13.8°C 56.5°F13.6°C 99% Calm Calm -- 29.24 in990.2 mb - 0.00 in0.0 mm 0.08 in2.0 mm
05:00 PM 54.9°F12.7°C 54.6°F12.6°C 99% Calm Calm -- 29.26 in990.9 mb - 0.00 in0.0 mm 0.08 in2.0 mm
06:00 PM 53.4°F11.9°C 53.1°F11.7°C 99% Calm Calm -- 29.27 in991.2 mb - 0.00 in0.0 mm 0.08 in2.0 mm
07:00 PM 52.5°F11.4°C 52.2°F11.2°C 99% Calm Calm -- 29.27 in991.2 mb - 0.00 in0.0 mm 0.08 in2.0 mm
08:00 PM 46.8°F8.2°C 46.5°F8.1°C 99% Calm Calm -- 29.28 in991.5 mb - 0.00 in0.0 mm 0.08 in2.0 mm
09:00 PM 43.5°F6.4°C 43.2°F6.2°C 99% Calm Calm -- 29.29 in991.9 mb - 0.00 in0.0 mm 0.08 in2.0 mm
10:00 PM 41.4°F5.2°C 41.2°F5.1°C 99% Calm Calm -- 29.31 in992.6 mb - 0.00 in0.0 mm 0.08 in2.0 mm
11:00 PM 39.2°F4.0°C 38.9°F3.8°C 99% Calm Calm -- 29.33 in993.2 mb - 0.00 in0.0 mm 0.08 in2.0 mm